createdAt,value
2018-05-18T06:21:37.881Z,1864
2018-05-18T06:22:10.073Z,1844
2018-05-18T06:22:42.138Z,1844
2018-05-18T06:23:14.243Z,1848
2018-05-18T06:23:46.310Z,1852
2018-05-18T06:24:18.362Z,1840
2018-05-18T06:24:50.465Z,1824
2018-05-18T06:25:22.578Z,1820
2018-05-18T06:25:54.641Z,1828
2018-05-18T06:26:26.829Z,1828
2018-05-18T06:26:58.935Z,1808
2018-05-18T06:30:10.105Z,1828
2018-05-18T06:30:42.235Z,1792
2018-05-18T06:31:14.329Z,1780
2018-05-18T06:31:46.890Z,1792
2018-05-18T06:32:19.019Z,1788
2018-05-18T06:32:51.104Z,1760
2018-05-18T06:33:23.226Z,1720
2018-05-18T06:33:55.300Z,1704
2018-05-18T06:34:27.401Z,1700
2018-05-18T06:34:59.631Z,1684
2018-05-18T06:35:31.600Z,1688
2018-05-18T06:36:03.677Z,1708
2018-05-18T06:36:35.755Z,1740
2018-05-18T06:37:07.893Z,1764
2018-05-18T06:37:39.949Z,1780
2018-05-18T06:38:12.032Z,1792
2018-05-18T06:38:44.120Z,1808
2018-05-18T06:39:16.227Z,1828
2018-05-18T06:39:48.381Z,1852
2018-05-18T06:40:20.495Z,1892
2018-05-18T06:40:52.391Z,1920
2018-05-18T06:41:24.476Z,1940
2018-05-18T06:43:15.868Z,2000
2018-05-18T06:43:47.947Z,2004
2018-05-18T06:44:20.658Z,2016
2018-05-18T06:44:52.807Z,2032
2018-05-18T06:45:24.882Z,2040
2018-05-18T06:45:56.952Z,2060
2018-05-18T06:46:29.011Z,2076
2018-05-18T06:47:01.138Z,2108
2018-05-18T06:47:33.236Z,2144
2018-05-18T06:48:05.313Z,2164
2018-05-18T06:48:37.396Z,2168
2018-05-18T06:49:09.468Z,2216
2018-05-18T06:52:20.380Z,2228
2018-05-18T06:52:52.489Z,2212
2018-05-18T06:53:24.584Z,2220
2018-05-18T06:53:56.724Z,2248
2018-05-18T06:54:28.751Z,2284
2018-05-18T06:55:00.839Z,2304
2018-05-18T06:55:32.955Z,2300
2018-05-18T06:56:05.026Z,2304
2018-05-18T06:57:56.605Z,2248
2018-05-18T06:58:28.721Z,2232
2018-05-18T06:59:00.786Z,2236
2018-05-18T06:59:32.901Z,2260
2018-05-18T07:00:05.026Z,2296
2018-05-18T07:00:37.153Z,2316
2018-05-18T07:01:09.262Z,2340
2018-05-18T07:01:41.334Z,2360
2018-05-18T07:02:13.408Z,2424
2018-05-18T07:02:45.475Z,2448
2018-05-18T07:04:36.872Z,2520
2018-05-18T07:05:09.012Z,2512
2018-05-18T07:05:41.112Z,2496
2018-05-18T07:06:13.258Z,2472
2018-05-18T07:06:45.389Z,2476
2018-05-18T07:08:36.889Z,2520
2018-05-18T07:10:28.527Z,2520
2018-05-18T07:11:00.537Z,2524
2018-05-18T07:11:32.636Z,2528
2018-05-18T07:12:04.756Z,2536
2018-05-18T07:12:36.856Z,2568
2018-05-18T07:13:08.911Z,2608
2018-05-18T07:15:00.360Z,2724
2018-05-18T07:15:32.457Z,2700
2018-05-18T07:16:04.549Z,2644
2018-05-18T07:16:36.685Z,2608
2018-05-18T07:17:08.740Z,2636
2018-05-18T07:17:40.842Z,2696
2018-05-18T07:18:12.920Z,2756
2018-05-18T07:20:04.534Z,2948
2018-05-18T07:20:36.653Z,2936
2018-05-18T07:21:08.768Z,2932
2018-05-18T07:23:00.569Z,2892
2018-05-18T07:23:32.574Z,2896
2018-05-18T07:24:04.692Z,2928
2018-05-18T07:24:36.865Z,2964
2018-05-18T07:25:08.952Z,3004
2018-05-18T07:25:41.043Z,3044
2018-05-18T07:26:13.121Z,3096
2018-05-18T07:26:45.213Z,3144
2018-05-18T07:27:17.311Z,3176
2018-05-18T07:27:49.434Z,3200
2018-05-18T07:29:40.803Z,2996
2018-05-18T07:30:12.901Z,2980
2018-05-18T07:32:04.410Z,2984
2018-05-18T07:32:36.506Z,3040
2018-05-18T07:34:28.018Z,3156
2018-05-18T07:35:00.116Z,3156
2018-05-18T07:35:32.369Z,3156
2018-05-18T07:36:04.627Z,3164
2018-05-18T07:36:36.685Z,3160
2018-05-18T07:37:09.079Z,3152
2018-05-18T07:37:41.343Z,3152
2018-05-18T07:38:13.537Z,3156
2018-05-18T07:38:45.691Z,3148
2018-05-18T07:39:17.877Z,3164
2018-05-18T07:39:49.974Z,3172
2018-05-18T07:40:22.048Z,3176
2018-05-18T07:40:54.143Z,3184
2018-05-18T07:41:26.257Z,3188
2018-05-18T07:41:58.356Z,3192
2018-05-18T07:42:30.446Z,3228
2018-05-18T07:43:02.534Z,3276
2018-05-18T07:43:34.767Z,3344
2018-05-18T07:44:06.875Z,3428
2018-05-18T07:44:38.980Z,3528
2018-05-18T07:45:11.038Z,3612
2018-05-18T07:45:43.135Z,3644
2018-05-18T07:46:15.230Z,3760
2018-05-18T07:46:47.342Z,3724
2018-05-18T07:47:19.423Z,3596
2018-05-18T07:47:51.514Z,3556
2018-05-18T07:48:23.622Z,3556
2018-05-18T07:48:55.733Z,3548
2018-05-18T07:50:47.342Z,3456
2018-05-18T07:51:19.424Z,3412
2018-05-18T07:51:51.535Z,3384
2018-05-18T07:52:23.582Z,3388
2018-05-18T07:52:55.715Z,3408
2018-05-18T07:53:27.843Z,3400
2018-05-18T07:53:59.896Z,3404
2018-05-18T07:55:51.704Z,3404
2018-05-18T07:56:23.786Z,3412
2018-05-18T07:56:55.859Z,3408
2018-05-18T08:00:07.156Z,3268
2018-05-18T08:00:39.259Z,3276
2018-05-18T08:01:11.332Z,3280
2018-05-18T08:01:43.425Z,3284
2018-05-18T08:02:15.505Z,3308
2018-05-18T08:02:47.589Z,3332
2018-05-18T08:04:38.912Z,3264
2018-05-18T08:06:30.423Z,3152
2018-05-18T08:07:02.539Z,3128
2018-05-18T08:07:34.652Z,3112
2018-05-18T08:08:06.711Z,3076
2018-05-18T08:08:38.805Z,3032
2018-05-18T08:09:10.896Z,3000
2018-05-18T08:09:42.993Z,2988
2018-05-18T08:10:15.089Z,2976
2018-05-18T08:10:47.188Z,2984
2018-05-18T08:11:19.315Z,2984
2018-05-18T08:11:51.254Z,2980
2018-05-18T08:12:23.341Z,2996
2018-05-18T08:12:55.444Z,3052
2018-05-18T08:13:27.552Z,3200
2018-05-18T08:13:59.642Z,3144
2018-05-18T08:14:31.750Z,3180
2018-05-18T08:16:23.391Z,3772
2018-05-18T08:16:55.492Z,4340
2018-05-18T08:17:27.576Z,4380
2018-05-18T08:17:59.659Z,5320
2018-05-18T08:19:52.175Z,3340
2018-05-18T08:20:25.576Z,3244
2018-05-18T08:22:17.673Z,3160
2018-05-18T08:24:09.321Z,4668
2018-05-18T08:24:41.417Z,4872
2018-05-18T08:25:13.517Z,5016
2018-05-18T08:25:45.692Z,5192
2018-05-18T08:26:17.833Z,5284
2018-05-18T08:26:49.913Z,4636
2018-05-18T08:27:22.057Z,4952
2018-05-18T08:27:54.163Z,4100
2018-05-18T08:28:26.304Z,4292
2018-05-18T08:28:58.444Z,4120
2018-05-18T08:29:30.532Z,3904
2018-05-18T08:30:02.617Z,3860
2018-05-18T08:30:34.705Z,3820
2018-05-18T08:31:06.879Z,3852
2018-05-18T08:31:38.985Z,3980
2018-05-18T08:33:32.322Z,3824
2018-05-18T08:34:07.516Z,3840
2018-05-18T08:34:40.478Z,3780
2018-05-18T08:36:33.624Z,3468
2018-05-18T08:38:26.471Z,3492
2018-05-18T08:38:58.625Z,3536
2018-05-18T08:39:30.715Z,3580
2018-05-18T08:40:02.824Z,3604
2018-05-18T08:41:54.184Z,5024
2018-05-18T08:42:26.251Z,5032
2018-05-18T08:44:18.378Z,4712
2018-05-18T08:44:50.398Z,3968
2018-05-18T08:45:22.502Z,3876
2018-05-18T08:48:33.450Z,3736
2018-05-18T08:49:05.531Z,3720
2018-05-18T08:49:37.624Z,3688
2018-05-18T08:50:12.309Z,3680
2018-05-18T08:52:04.020Z,3556
2018-05-18T08:52:36.204Z,3448
2018-05-18T08:53:08.276Z,3380
2018-05-18T08:53:40.354Z,3320
2018-05-18T08:54:12.583Z,3192
2018-05-18T08:54:44.667Z,3080
2018-05-18T08:56:36.030Z,2712
2018-05-18T08:57:08.111Z,2620
2018-05-18T08:57:40.171Z,2536
2018-05-18T08:58:12.241Z,2456
2018-05-18T08:58:44.343Z,2380
2018-05-18T08:59:16.456Z,2316
2018-05-18T08:59:48.548Z,2260
2018-05-18T09:00:20.649Z,2196
2018-05-18T09:00:53.396Z,2152
2018-05-18T09:01:25.487Z,2132
2018-05-18T09:01:57.636Z,2144
2018-05-18T09:02:29.751Z,2192
2018-05-18T09:03:01.857Z,2272
2018-05-18T09:03:33.973Z,2360
2018-05-18T09:04:06.074Z,2484
2018-05-18T09:04:38.157Z,2712
2018-05-18T09:05:10.236Z,2984
2018-05-18T09:05:42.341Z,3548
2018-05-18T09:06:14.441Z,3852
2018-05-18T09:06:46.574Z,3824
2018-05-18T09:07:18.703Z,3960
2018-05-18T09:07:50.791Z,4020
2018-05-18T09:08:22.910Z,3948
2018-05-18T09:08:55.447Z,3628
2018-05-18T09:09:27.718Z,3796
2018-05-18T09:09:59.805Z,3408
2018-05-18T09:10:31.885Z,3280
2018-05-18T09:11:04.810Z,3056
2018-05-18T09:11:37.130Z,3056
2018-05-18T09:12:10.131Z,3872
2018-05-18T09:12:44.421Z,4600
2018-05-18T09:14:35.875Z,4388
2018-05-18T09:15:07.959Z,4284
2018-05-18T09:15:39.987Z,3820
2018-05-18T09:16:12.063Z,3944
2018-05-18T09:16:44.168Z,5152
2018-05-18T09:17:16.271Z,5656
2018-05-18T09:17:48.376Z,5952
2018-05-18T09:18:20.468Z,5912
2018-05-18T09:20:11.930Z,6216
2018-05-18T09:20:44.036Z,5188
2018-05-18T09:21:16.092Z,6204
2018-05-18T09:21:48.278Z,5936
2018-05-18T09:22:20.433Z,7052
2018-05-18T09:22:52.580Z,7440
2018-05-18T09:24:44.115Z,6152
2018-05-18T09:26:35.890Z,5652
2018-05-18T09:27:08.085Z,5588
2018-05-18T09:27:40.077Z,5352
2018-05-18T09:28:12.168Z,5280
2018-05-18T09:30:03.712Z,4744
2018-05-18T09:30:35.791Z,4592
2018-05-18T09:31:07.891Z,4408
2018-05-18T09:31:40.005Z,4192
2018-05-18T09:32:12.104Z,3956
2018-05-18T09:32:44.222Z,3736
2018-05-18T09:33:16.305Z,3548
2018-05-18T09:35:07.940Z,3320
2018-05-18T09:35:39.979Z,3320
2018-05-18T09:36:12.046Z,3324
2018-05-18T09:36:44.046Z,3316
2018-05-18T09:37:16.071Z,3268
2018-05-18T09:37:48.083Z,3208
2018-05-18T09:38:20.101Z,3156
2018-05-18T09:38:52.117Z,3144
2018-05-18T09:39:24.160Z,3144
2018-05-18T09:39:56.301Z,3164
2018-05-18T09:40:28.404Z,3232
2018-05-18T09:41:00.439Z,3404
2018-05-18T09:41:32.463Z,4932
2018-05-18T09:42:04.506Z,3884
2018-05-18T09:42:36.524Z,4136
2018-05-18T09:43:08.550Z,4888
2018-05-18T09:43:40.677Z,4168
2018-05-18T09:44:13.403Z,5232
2018-05-18T09:44:45.410Z,5248
2018-05-18T09:45:17.596Z,5296
2018-05-18T09:45:49.789Z,4024
2018-05-18T09:46:21.828Z,4596
2018-05-18T09:46:53.864Z,4664
2018-05-18T09:47:25.929Z,4100
2018-05-18T09:47:57.933Z,4164
2018-05-18T09:48:29.972Z,4480
2018-05-18T09:49:02.014Z,4540
2018-05-18T09:49:34.165Z,4760
2018-05-18T09:50:06.175Z,5156
2018-05-18T09:50:38.218Z,6860
2018-05-18T09:51:10.214Z,7000
2018-05-18T09:51:42.387Z,7076
2018-05-18T09:52:14.476Z,7068
2018-05-18T09:52:46.513Z,7028
2018-05-18T09:53:18.551Z,5612
2018-05-18T09:53:50.602Z,5504
2018-05-18T09:54:22.948Z,5436
2018-05-18T09:54:56.092Z,5412
2018-05-18T09:55:29.666Z,5424
2018-05-18T09:56:01.301Z,5400
2018-05-18T09:56:33.290Z,5376
2018-05-18T09:57:05.327Z,5356
2018-05-18T09:57:37.324Z,5348
2018-05-18T09:58:09.333Z,5360
2018-05-18T09:58:41.369Z,5420
2018-05-18T09:59:13.411Z,5516
2018-05-18T09:59:45.426Z,5656
2018-05-18T10:00:17.467Z,5624
2018-05-18T10:00:49.577Z,5596
2018-05-18T10:01:21.576Z,5612
2018-05-18T10:01:53.643Z,5392
2018-05-18T10:02:25.648Z,5256
2018-05-18T10:02:57.838Z,5248
2018-05-18T10:03:30.415Z,5256
2018-05-18T10:04:02.373Z,5304
2018-05-18T10:04:34.432Z,5348
2018-05-18T10:05:06.480Z,5436
2018-05-18T10:05:38.527Z,5592
2018-05-18T10:06:10.553Z,5608
2018-05-18T10:06:42.601Z,5744
2018-05-18T10:07:14.750Z,5836
2018-05-18T10:07:46.767Z,5876
2018-05-18T10:08:18.806Z,5896
2018-05-18T10:08:50.822Z,5468
2018-05-18T10:09:22.881Z,5368
2018-05-18T10:09:54.864Z,5268
2018-05-18T10:10:26.886Z,5248
2018-05-18T10:10:58.895Z,5200
2018-05-18T10:11:30.888Z,5040
2018-05-18T10:12:02.916Z,4832
2018-05-18T10:12:34.943Z,4628
2018-05-18T10:13:07.062Z,4392
2018-05-18T10:13:39.183Z,4136
2018-05-18T10:14:11.198Z,3916
2018-05-18T10:14:43.245Z,3708
2018-05-18T10:15:16.148Z,3548
2018-05-18T10:15:48.128Z,3456
2018-05-18T10:16:20.140Z,3464
2018-05-18T10:16:52.234Z,3696
2018-05-18T10:17:24.241Z,4152
2018-05-18T10:17:56.304Z,4892
2018-05-18T10:18:28.494Z,5048
2018-05-18T10:19:00.444Z,5100
2018-05-18T10:19:32.492Z,5160
2018-05-18T10:20:04.532Z,5248
2018-05-18T10:20:36.619Z,5460
2018-05-18T10:21:08.732Z,5564
2018-05-18T10:21:40.881Z,5756
2018-05-18T10:22:12.902Z,5728
2018-05-18T10:22:44.893Z,5788
2018-05-18T10:23:16.897Z,5816
2018-05-18T10:23:48.915Z,5780
2018-05-18T10:24:20.931Z,5632
2018-05-18T10:24:52.956Z,5636
2018-05-18T10:25:24.977Z,5500
2018-05-18T10:25:57.006Z,5676
2018-05-18T10:26:29.045Z,5796
2018-05-18T10:27:01.140Z,5908
2018-05-18T10:27:33.240Z,6072
2018-05-18T10:28:05.286Z,6044
2018-05-18T10:28:37.411Z,6464
2018-05-18T10:29:09.393Z,6780
2018-05-18T10:29:41.440Z,7000
2018-05-18T10:30:13.425Z,7316
2018-05-18T10:30:45.446Z,7528
2018-05-18T10:31:17.477Z,7648
2018-05-18T10:31:49.558Z,6152
2018-05-18T10:32:21.575Z,7592
2018-05-18T10:32:53.841Z,6420
2018-05-18T10:33:25.799Z,5972
2018-05-18T10:33:57.807Z,6152
2018-05-18T10:34:29.850Z,6208
2018-05-18T10:35:01.870Z,6212
2018-05-18T10:35:33.935Z,5464
2018-05-18T10:36:06.094Z,5160
2018-05-18T10:36:38.170Z,4916
2018-05-18T10:37:10.333Z,4748
2018-05-18T10:37:42.348Z,4628
2018-05-18T10:38:14.376Z,4560
2018-05-18T10:38:46.596Z,4532
2018-05-18T10:39:18.823Z,4504
2018-05-18T10:39:50.929Z,4500
2018-05-18T10:40:22.960Z,4508
2018-05-18T10:40:55.005Z,4532
2018-05-18T10:41:27.020Z,4640
2018-05-18T10:41:59.203Z,4744
2018-05-18T10:42:31.301Z,4840
2018-05-18T10:43:03.413Z,4972
2018-05-18T10:43:35.453Z,5156
2018-05-18T10:44:07.542Z,5508
2018-05-18T10:44:40.167Z,6296
2018-05-18T10:45:12.210Z,6808
2018-05-18T10:45:44.362Z,7296
2018-05-18T10:46:16.409Z,6852
2018-05-18T10:46:48.460Z,7424
2018-05-18T10:47:20.482Z,7388
2018-05-18T10:47:52.551Z,6556
2018-05-18T10:48:24.604Z,5360
2018-05-18T10:48:56.614Z,5144
2018-05-18T10:49:29.386Z,4988
2018-05-18T10:50:01.525Z,4912
2018-05-18T10:50:33.531Z,4824
2018-05-18T10:51:05.537Z,4856
2018-05-18T10:51:37.550Z,4996
2018-05-18T10:52:09.595Z,5256
2018-05-18T10:52:41.601Z,5580
2018-05-18T10:53:13.659Z,6028
2018-05-18T10:53:45.695Z,6776
2018-05-18T10:54:17.852Z,7928
2018-05-18T10:54:49.985Z,5988
2018-05-18T10:55:22.103Z,5916
2018-05-18T10:55:54.110Z,5964
2018-05-18T10:56:26.088Z,6036
2018-05-18T10:56:58.219Z,5996
2018-05-18T10:57:30.325Z,5976
2018-05-18T10:58:02.420Z,6136
2018-05-18T10:58:34.571Z,7772
2018-05-18T10:59:06.635Z,7632
2018-05-18T10:59:38.634Z,6360
2018-05-18T11:00:10.680Z,5252
2018-05-18T11:00:42.698Z,5252
2018-05-18T11:01:14.697Z,5200
2018-05-18T11:01:46.748Z,5408
2018-05-18T11:02:18.796Z,6264
2018-05-18T11:02:50.837Z,5776
2018-05-18T11:03:22.881Z,5384
2018-05-18T11:03:54.856Z,7076
2018-05-18T11:04:27.014Z,6992
2018-05-18T11:04:59.049Z,6924
2018-05-18T11:05:31.084Z,6824
2018-05-18T11:06:03.151Z,6464
2018-05-18T11:06:35.244Z,6508
2018-05-18T11:07:07.269Z,4612
2018-05-18T11:07:39.294Z,5044
2018-05-18T11:08:11.344Z,5016
2018-05-18T11:08:43.341Z,5948
2018-05-18T11:09:15.395Z,5964
2018-05-18T11:09:47.474Z,6424
2018-05-18T11:10:19.473Z,6284
2018-05-18T11:10:51.546Z,6520
2018-05-18T11:11:24.276Z,6132
2018-05-18T11:11:56.313Z,6880
2018-05-18T11:12:28.384Z,7080
2018-05-18T11:13:00.476Z,7248
2018-05-18T11:13:32.531Z,7440
2018-05-18T11:14:04.650Z,7620
2018-05-18T11:14:36.703Z,7796
2018-05-18T11:15:08.789Z,7956
2018-05-18T11:15:40.841Z,8180
2018-05-18T11:16:12.875Z,7028
2018-05-18T11:16:44.883Z,6204
2018-05-18T11:17:16.874Z,6476
2018-05-18T11:17:48.907Z,6364
2018-05-18T11:18:20.947Z,6468
2018-05-18T11:18:53.067Z,6688
2018-05-18T11:19:25.102Z,8612
2018-05-18T11:19:57.222Z,6524
2018-05-18T11:20:29.170Z,6136
2018-05-18T11:21:01.296Z,5840
2018-05-18T11:21:33.346Z,5512
2018-05-18T11:22:05.373Z,5184
2018-05-18T11:22:37.425Z,4884
2018-05-18T11:23:09.467Z,4568
2018-05-18T11:23:41.481Z,4276
2018-05-18T11:24:13.633Z,4088
2018-05-18T11:24:45.744Z,4048
2018-05-18T11:25:17.758Z,5052
2018-05-18T11:25:49.917Z,6296
2018-05-18T11:26:22.063Z,6716
2018-05-18T11:26:54.178Z,5080
2018-05-18T11:27:26.218Z,7080
2018-05-18T11:27:58.259Z,7224
2018-05-18T11:28:31.034Z,7492
2018-05-18T11:29:03.148Z,7660
2018-05-18T11:29:35.142Z,7852
2018-05-18T11:30:07.148Z,8048
2018-05-18T11:30:39.192Z,8168
2018-05-18T11:31:11.332Z,8240
2018-05-18T11:31:44.238Z,8356
2018-05-18T11:32:16.268Z,8464
2018-05-18T11:32:48.354Z,8652
2018-05-18T11:33:20.377Z,8736
2018-05-18T11:33:52.423Z,8824
2018-05-18T11:34:24.441Z,8920
2018-05-18T11:34:56.440Z,8116
2018-05-18T11:35:28.430Z,6684
2018-05-18T11:36:00.457Z,6432
2018-05-18T11:36:32.550Z,6764
2018-05-18T11:37:05.109Z,7184
2018-05-18T11:37:37.345Z,6852
2018-05-18T11:38:09.347Z,8416
2018-05-18T11:38:41.376Z,8220
2018-05-18T11:39:13.562Z,8164
2018-05-18T11:39:45.580Z,8192
2018-05-18T11:40:17.639Z,8248
2018-05-18T11:40:49.683Z,8308
2018-05-18T11:41:21.715Z,8376
2018-05-18T11:41:54.095Z,8420
2018-05-18T11:42:26.118Z,8816
2018-05-18T11:42:58.135Z,8972
2018-05-18T11:43:30.203Z,9068
2018-05-18T11:44:02.240Z,9160
2018-05-18T11:44:34.258Z,9160
2018-05-18T11:45:06.290Z,9140
2018-05-18T11:45:38.343Z,9216
2018-05-18T11:46:10.433Z,8204
2018-05-18T11:46:42.438Z,9076
2018-05-18T11:47:14.450Z,8576
2018-05-18T11:47:46.465Z,8124
2018-05-18T11:48:18.523Z,7444
2018-05-18T11:48:50.577Z,8112
2018-05-18T11:49:22.636Z,7856
2018-05-18T11:49:54.715Z,7220
2018-05-18T11:50:26.770Z,8268
2018-05-18T11:50:58.835Z,8208
2018-05-18T11:51:30.847Z,8180
2018-05-18T11:52:02.876Z,8244
2018-05-18T11:52:34.901Z,7640
2018-05-18T11:53:07.141Z,5764
2018-05-18T11:53:39.270Z,5516
2018-05-18T11:54:11.382Z,8236
2018-05-18T11:54:43.616Z,8508
2018-05-18T11:55:15.557Z,8664
2018-05-18T11:55:47.574Z,9016
2018-05-18T11:56:19.616Z,8572
2018-05-18T11:56:51.818Z,6612
2018-05-18T11:57:23.950Z,6800
2018-05-18T11:57:55.939Z,7304
2018-05-18T11:58:28.004Z,8268
2018-05-18T11:59:00.062Z,6896
2018-05-18T11:59:32.091Z,6808
2018-05-18T12:00:04.148Z,6204
2018-05-18T12:00:36.184Z,7176
2018-05-18T12:01:08.202Z,9608
2018-05-18T12:01:40.247Z,6628
2018-05-18T12:02:12.264Z,8128
2018-05-18T12:02:44.310Z,8552
2018-05-18T12:03:16.351Z,7444
2018-05-18T12:03:48.366Z,7488
2018-05-18T12:04:20.533Z,6136
2018-05-18T12:04:52.564Z,5840
2018-05-18T12:05:24.550Z,5648
2018-05-18T12:05:56.556Z,5920
2018-05-18T12:06:28.566Z,6824
2018-05-18T12:07:00.637Z,5308
2018-05-18T12:07:32.615Z,5396
2018-05-18T12:08:04.619Z,5176
2018-05-18T12:08:36.740Z,5500
2018-05-18T12:09:08.689Z,7684
2018-05-18T12:09:40.702Z,8708
2018-05-18T12:10:12.740Z,8664
2018-05-18T12:10:44.760Z,8696
2018-05-18T12:11:16.819Z,8744
2018-05-18T12:11:48.882Z,8904
2018-05-18T12:12:20.902Z,9220
2018-05-18T12:12:52.969Z,9512
2018-05-18T12:13:24.955Z,9764
2018-05-18T12:13:57.056Z,9968
2018-05-18T12:14:29.111Z,10072
2018-05-18T12:15:01.132Z,9684
2018-05-18T12:15:33.112Z,8296
2018-05-18T12:16:05.227Z,6228
2018-05-18T12:16:37.269Z,8564
2018-05-18T12:17:09.285Z,5884
2018-05-18T12:17:41.374Z,6056
2018-05-18T12:18:13.533Z,9260
2018-05-18T12:18:45.639Z,9244
2018-05-18T12:19:17.662Z,9320
2018-05-18T12:19:49.687Z,9372
2018-05-18T12:20:22.059Z,9456
2018-05-18T12:20:54.239Z,9444
2018-05-18T12:21:26.286Z,9356
2018-05-18T12:21:58.279Z,9284
2018-05-18T12:22:30.439Z,9252
2018-05-18T12:23:02.417Z,9352
2018-05-18T12:23:34.432Z,9356
2018-05-18T12:24:06.473Z,9480
2018-05-18T12:24:38.503Z,9808
2018-05-18T12:25:10.583Z,10076
2018-05-18T12:25:42.637Z,10176
2018-05-18T12:26:14.982Z,10492
2018-05-18T12:26:46.955Z,10620
2018-05-18T12:27:19.032Z,9988
2018-05-18T12:27:51.002Z,8712
2018-05-18T12:28:23.033Z,10552
2018-05-18T12:28:55.058Z,10880
2018-05-18T12:29:27.077Z,11156
2018-05-18T12:29:59.101Z,11148
2018-05-18T12:30:31.235Z,11440
2018-05-18T12:31:04.137Z,11500
2018-05-18T12:31:36.324Z,11424
2018-05-18T12:32:08.400Z,11484
2018-05-18T12:32:40.397Z,11504
2018-05-18T12:33:12.409Z,11600
2018-05-18T12:33:44.466Z,11592
2018-05-18T12:34:16.506Z,11744
2018-05-18T12:34:48.654Z,11664
2018-05-18T12:35:20.757Z,11808
2018-05-18T12:35:53.417Z,11800
2018-05-18T12:36:25.509Z,11696
2018-05-18T12:36:57.842Z,11960
2018-05-18T12:37:29.863Z,12028
2018-05-18T12:38:01.951Z,12020
2018-05-18T12:38:33.940Z,11984
2018-05-18T12:39:05.925Z,11960
2018-05-18T12:39:37.963Z,12016
2018-05-18T12:40:09.997Z,8628
2018-05-18T12:40:42.079Z,11808
2018-05-18T12:41:14.142Z,11928
2018-05-18T12:41:46.150Z,12088
2018-05-18T12:42:18.249Z,12092
2018-05-18T12:42:50.258Z,12216
2018-05-18T12:43:22.319Z,12328
2018-05-18T12:43:54.332Z,12040
2018-05-18T12:44:27.047Z,12320
2018-05-18T12:44:59.070Z,12468
2018-05-18T12:45:31.593Z,12876
2018-05-18T12:46:03.620Z,12868
2018-05-18T12:46:36.144Z,13044
2018-05-18T12:47:08.182Z,12892
2018-05-18T12:47:40.188Z,13224
2018-05-18T12:48:12.183Z,13376
2018-05-18T12:48:44.291Z,13720
2018-05-18T12:49:16.356Z,13916
2018-05-18T12:49:48.407Z,14236
2018-05-18T12:50:20.525Z,14536
2018-05-18T12:50:52.522Z,14940
2018-05-18T12:51:24.564Z,15320
2018-05-18T12:51:56.576Z,15496
2018-05-18T12:52:28.588Z,15496
2018-05-18T12:53:00.570Z,15484
2018-05-18T12:53:32.577Z,15444
2018-05-18T12:54:04.849Z,15196
2018-05-18T12:54:36.780Z,14964
2018-05-18T12:55:08.807Z,14952
2018-05-18T12:55:40.857Z,14924
2018-05-18T12:56:12.852Z,15040
2018-05-18T12:56:44.880Z,15256
2018-05-18T12:57:16.858Z,15320
2018-05-18T12:57:48.879Z,15500
2018-05-18T12:58:20.938Z,15592
2018-05-18T12:58:52.983Z,15860
2018-05-18T12:59:25.073Z,15736
2018-05-18T12:59:57.171Z,15856
2018-05-18T13:00:29.228Z,15820
2018-05-18T13:01:01.253Z,16404
2018-05-18T13:01:33.291Z,16528
2018-05-18T13:02:05.276Z,16136
2018-05-18T13:02:37.250Z,15532
2018-05-18T13:03:09.295Z,15580
2018-05-18T13:03:41.337Z,14736
2018-05-18T13:04:13.340Z,17328
2018-05-18T13:04:45.367Z,17764
2018-05-18T13:05:17.419Z,17532
2018-05-18T13:05:49.419Z,18432
2018-05-18T13:06:21.487Z,18560
2018-05-18T13:06:53.606Z,19040
2018-05-18T13:07:25.640Z,19008
2018-05-18T13:07:57.642Z,18976
2018-05-18T13:08:29.652Z,14672
2018-05-18T13:09:01.708Z,19680
2018-05-18T13:09:33.700Z,20064
2018-05-18T13:10:05.734Z,20480
2018-05-18T13:10:37.746Z,20512
2018-05-18T13:11:09.821Z,20608
2018-05-18T13:11:45.514Z,20768
2018-05-18T13:12:17.527Z,20928
2018-05-18T13:12:49.606Z,21056
2018-05-18T13:13:21.780Z,21216
2018-05-18T13:13:53.830Z,21312
2018-05-18T13:14:25.857Z,21440
2018-05-18T13:14:57.863Z,21664
2018-05-18T13:15:29.918Z,21760
2018-05-18T13:16:03.033Z,21760
2018-05-18T13:16:35.961Z,21824
2018-05-18T13:17:08.303Z,22304
2018-05-18T13:17:40.423Z,22432
2018-05-18T13:18:12.505Z,22560
2018-05-18T13:18:44.553Z,22528
2018-05-18T13:19:16.568Z,22656
2018-05-18T13:19:48.590Z,23008
2018-05-18T13:20:20.622Z,23200
2018-05-18T13:20:52.720Z,23232
2018-05-18T13:21:24.705Z,23296
2018-05-18T13:21:56.714Z,23456
2018-05-18T13:22:28.803Z,23456
2018-05-18T13:23:00.851Z,23616
2018-05-18T13:23:32.864Z,24096
2018-05-18T13:24:04.887Z,24256
2018-05-18T13:24:36.919Z,24608
2018-05-18T13:25:08.990Z,24640
2018-05-18T13:25:41.776Z,24512
2018-05-18T13:26:13.821Z,25728
2018-05-18T13:26:45.855Z,16816
2018-05-18T13:27:18.684Z,17504
2018-05-18T13:27:50.731Z,11208
2018-05-18T13:28:22.747Z,7388
2018-05-18T13:28:54.771Z,7108
2018-05-18T13:29:26.935Z,7768
2018-05-18T13:29:58.968Z,17596
2018-05-18T13:30:31.116Z,25920
2018-05-18T13:31:03.095Z,26560
2018-05-18T13:31:35.118Z,26368
2018-05-18T13:32:07.202Z,26752
2018-05-18T13:32:39.252Z,24352
2018-05-18T13:33:11.391Z,26784
2018-05-18T13:33:43.708Z,23264
2018-05-18T13:34:15.707Z,24608
2018-05-18T13:34:47.749Z,22944
2018-05-18T13:35:19.820Z,11528
2018-05-18T13:35:51.995Z,9844
2018-05-18T13:36:23.968Z,28448
2018-05-18T13:36:56.056Z,8916
2018-05-18T13:37:28.082Z,8092
2018-05-18T13:38:00.149Z,8296
2018-05-18T13:38:32.388Z,8548
2018-05-18T13:39:04.415Z,9288
2018-05-18T13:39:36.461Z,10248
2018-05-18T13:40:08.480Z,9224
2018-05-18T13:40:40.540Z,9484
2018-05-18T13:41:12.631Z,11368
2018-05-18T13:41:44.686Z,13084
2018-05-18T13:42:16.747Z,22240
2018-05-18T13:42:48.801Z,26816
2018-05-18T13:43:20.823Z,27520
2018-05-18T13:43:52.865Z,28224
2018-05-18T13:44:24.977Z,27744
2018-05-18T13:44:57.139Z,27552
2018-05-18T13:45:29.198Z,27648
2018-05-18T13:46:01.261Z,27776
2018-05-18T13:46:33.303Z,27936
2018-05-18T13:47:05.299Z,27392
2018-05-18T13:47:37.341Z,27392
2018-05-18T13:48:09.451Z,27232
2018-05-18T13:48:41.454Z,26976
2018-05-18T13:49:13.503Z,26752
2018-05-18T13:49:45.505Z,26688
2018-05-18T13:50:17.487Z,26976
2018-05-18T13:50:50.140Z,26496
2018-05-18T13:51:22.149Z,27136
2018-05-18T13:51:54.217Z,27392
2018-05-18T13:52:26.231Z,27232
2018-05-18T13:52:58.240Z,27296
2018-05-18T13:53:30.298Z,26752
2018-05-18T13:54:02.297Z,26880
2018-05-18T13:54:34.340Z,26688
2018-05-18T13:55:06.367Z,26592
2018-05-18T13:55:38.340Z,26976
2018-05-18T13:56:10.479Z,27008
2018-05-18T13:56:42.534Z,27168
2018-05-18T13:57:14.746Z,27264
2018-05-18T13:57:46.847Z,27392
2018-05-18T13:58:18.884Z,27008
2018-05-18T13:58:51.065Z,27136
2018-05-18T13:59:23.195Z,27072
2018-05-18T13:59:55.191Z,27104
2018-05-18T14:00:27.220Z,27040
2018-05-18T14:00:59.248Z,25152
2018-05-18T14:01:31.266Z,25792
2018-05-18T14:02:03.254Z,12884
2018-05-18T14:02:35.948Z,21920
2018-05-18T14:03:07.972Z,26016
2018-05-18T14:03:39.986Z,26048
2018-05-18T14:04:11.995Z,25952
2018-05-18T14:04:44.052Z,24864
2018-05-18T14:05:16.108Z,17240
2018-05-18T14:05:48.146Z,25152
2018-05-18T14:06:20.177Z,23648
2018-05-18T14:06:52.225Z,25184
2018-05-18T14:07:24.223Z,25408
2018-05-18T14:07:56.275Z,25216
2018-05-18T14:08:28.357Z,24512
2018-05-18T14:09:00.435Z,24480
2018-05-18T14:09:32.408Z,25184
2018-05-18T14:10:04.409Z,23136
2018-05-18T14:10:36.464Z,21664
2018-05-18T14:11:08.546Z,23968
2018-05-18T14:11:40.575Z,23712
2018-05-18T14:12:12.695Z,23488
2018-05-18T14:12:44.750Z,23328
2018-05-18T14:13:16.744Z,23872
2018-05-18T14:13:48.851Z,23392
2018-05-18T14:14:20.879Z,23232
2018-05-18T14:14:52.916Z,23328
2018-05-18T14:15:24.925Z,23136
2018-05-18T14:15:57.075Z,23264
2018-05-18T14:16:29.044Z,22944
2018-05-18T14:17:01.064Z,23680
2018-05-18T14:17:33.179Z,22816
2018-05-18T14:18:05.187Z,22464